sensor_id;sensor_type;location;lat;lon;timestamp;P1;durP1;ratioP1;P2;durP2;ratioP2
8927;SDS011;4499;48.304;11.902;2023-07-29T00:00:15;5.67;;;3.90;;
8927;SDS011;4499;48.304;11.902;2023-07-29T00:02:44;6.47;;;3.73;;
8927;SDS011;4499;48.304;11.902;2023-07-29T00:05:13;4.37;;;3.93;;
8927;SDS011;4499;48.304;11.902;2023-07-29T00:07:41;5.47;;;3.70;;
8927;SDS011;4499;48.304;11.902;2023-07-29T00:10:09;5.00;;;3.90;;
8927;SDS011;4499;48.304;11.902;2023-07-29T00:12:37;5.20;;;4.10;;
8927;SDS011;4499;48.304;11.902;2023-07-29T00:15:06;6.10;;;4.20;;
8927;SDS011;4499;48.304;11.902;2023-07-29T00:17:34;7.17;;;4.07;;
8927;SDS011;4499;48.304;11.902;2023-07-29T00:20:05;4.63;;;3.90;;
8927;SDS011;4499;48.304;11.902;2023-07-29T00:22:34;7.30;;;4.23;;
8927;SDS011;4499;48.304;11.902;2023-07-29T00:25:02;6.43;;;4.30;;
8927;SDS011;4499;48.304;11.902;2023-07-29T00:27:31;4.67;;;3.93;;
8927;SDS011;4499;48.304;11.902;2023-07-29T00:29:59;4.80;;;3.93;;
8927;SDS011;4499;48.304;11.902;2023-07-29T00:32:29;5.30;;;4.27;;
8927;SDS011;4499;48.304;11.902;2023-07-29T00:34:57;4.77;;;4.20;;
8927;SDS011;4499;48.304;11.902;2023-07-29T00:37:29;6.27;;;4.33;;
8927;SDS011;4499;48.304;11.902;2023-07-29T00:39:57;4.23;;;3.70;;
8927;SDS011;4499;48.304;11.902;2023-07-29T00:42:26;5.20;;;4.27;;
8927;SDS011;4499;48.304;11.902;2023-07-29T00:44:54;6.47;;;3.97;;
8927;SDS011;4499;48.304;11.902;2023-07-29T00:47:22;5.57;;;4.37;;
8927;SDS011;4499;48.304;11.902;2023-07-29T00:49:51;5.43;;;3.90;;
8927;SDS011;4499;48.304;11.902;2023-07-29T00:52:19;4.63;;;3.87;;
8927;SDS011;4499;48.304;11.902;2023-07-29T00:54:48;4.80;;;4.10;;
8927;SDS011;4499;48.304;11.902;2023-07-29T00:57:16;8.50;;;4.43;;
8927;SDS011;4499;48.304;11.902;2023-07-29T00:59:46;5.07;;;4.07;;
8927;SDS011;4499;48.304;11.902;2023-07-29T01:02:14;9.97;;;4.27;;
8927;SDS011;4499;48.304;11.902;2023-07-29T01:04:42;5.47;;;3.97;;
8927;SDS011;4499;48.304;11.902;2023-07-29T01:07:12;6.50;;;4.10;;
8927;SDS011;4499;48.304;11.902;2023-07-29T01:09:50;5.80;;;4.23;;
8927;SDS011;4499;48.304;11.902;2023-07-29T01:12:26;7.90;;;3.90;;
8927;SDS011;4499;48.304;11.902;2023-07-29T01:15:03;7.13;;;4.10;;
8927;SDS011;4499;48.304;11.902;2023-07-29T01:17:39;5.30;;;3.77;;
8927;SDS011;4499;48.304;11.902;2023-07-29T01:20:11;4.97;;;3.87;;
8927;SDS011;4499;48.304;11.902;2023-07-29T01:22:42;5.80;;;3.90;;
8927;SDS011;4499;48.304;11.902;2023-07-29T01:25:11;5.50;;;4.53;;
8927;SDS011;4499;48.304;11.902;2023-07-29T01:27:40;5.33;;;4.10;;
8927;SDS011;4499;48.304;11.902;2023-07-29T01:30:09;7.10;;;4.07;;
8927;SDS011;4499;48.304;11.902;2023-07-29T01:32:43;5.70;;;3.97;;
8927;SDS011;4499;48.304;11.902;2023-07-29T01:35:19;8.00;;;4.13;;
8927;SDS011;4499;48.304;11.902;2023-07-29T01:37:51;6.07;;;4.17;;
8927;SDS011;4499;48.304;11.902;2023-07-29T01:40:23;5.20;;;4.13;;
8927;SDS011;4499;48.304;11.902;2023-07-29T01:42:54;5.20;;;4.00;;
8927;SDS011;4499;48.304;11.902;2023-07-29T01:45:23;6.20;;;4.20;;
8927;SDS011;4499;48.304;11.902;2023-07-29T01:47:52;6.67;;;4.30;;
8927;SDS011;4499;48.304;11.902;2023-07-29T01:50:20;6.80;;;3.83;;
8927;SDS011;4499;48.304;11.902;2023-07-29T01:52:48;9.03;;;4.27;;
8927;SDS011;4499;48.304;11.902;2023-07-29T01:55:16;7.03;;;4.37;;
8927;SDS011;4499;48.304;11.902;2023-07-29T01:57:46;5.47;;;4.17;;
8927;SDS011;4499;48.304;11.902;2023-07-29T02:00:14;8.87;;;4.50;;
8927;SDS011;4499;48.304;11.902;2023-07-29T02:02:42;7.17;;;4.33;;
8927;SDS011;4499;48.304;11.902;2023-07-29T02:05:11;5.87;;;4.20;;
8927;SDS011;4499;48.304;11.902;2023-07-29T02:07:39;5.13;;;4.10;;
8927;SDS011;4499;48.304;11.902;2023-07-29T02:10:07;5.53;;;4.13;;
8927;SDS011;4499;48.304;11.902;2023-07-29T02:12:36;4.23;;;3.60;;
8927;SDS011;4499;48.304;11.902;2023-07-29T02:15:06;7.73;;;4.30;;
8927;SDS011;4499;48.304;11.902;2023-07-29T02:17:35;7.00;;;4.13;;
8927;SDS011;4499;48.304;11.902;2023-07-29T02:20:04;10.00;;;4.57;;
8927;SDS011;4499;48.304;11.902;2023-07-29T02:22:33;7.03;;;3.93;;
8927;SDS011;4499;48.304;11.902;2023-07-29T02:25:02;5.93;;;3.97;;
8927;SDS011;4499;48.304;11.902;2023-07-29T02:27:30;4.67;;;3.87;;
8927;SDS011;4499;48.304;11.902;2023-07-29T02:29:59;5.70;;;3.97;;
8927;SDS011;4499;48.304;11.902;2023-07-29T02:32:29;5.43;;;3.70;;
8927;SDS011;4499;48.304;11.902;2023-07-29T02:34:57;5.93;;;4.23;;
8927;SDS011;4499;48.304;11.902;2023-07-29T02:37:25;5.53;;;3.90;;
8927;SDS011;4499;48.304;11.902;2023-07-29T02:39:53;6.20;;;3.67;;
8927;SDS011;4499;48.304;11.902;2023-07-29T02:42:21;5.70;;;3.50;;
8927;SDS011;4499;48.304;11.902;2023-07-29T02:44:49;6.40;;;3.60;;
8927;SDS011;4499;48.304;11.902;2023-07-29T02:47:18;5.93;;;3.83;;
8927;SDS011;4499;48.304;11.902;2023-07-29T02:49:47;6.67;;;3.57;;
8927;SDS011;4499;48.304;11.902;2023-07-29T02:52:15;3.80;;;3.23;;
8927;SDS011;4499;48.304;11.902;2023-07-29T02:54:43;5.47;;;3.77;;
8927;SDS011;4499;48.304;11.902;2023-07-29T02:57:12;6.50;;;3.87;;
8927;SDS011;4499;48.304;11.902;2023-07-29T02:59:41;4.57;;;3.67;;
8927;SDS011;4499;48.304;11.902;2023-07-29T03:02:09;6.50;;;4.20;;
8927;SDS011;4499;48.304;11.902;2023-07-29T03:04:37;5.90;;;4.00;;
8927;SDS011;4499;48.304;11.902;2023-07-29T03:07:07;5.33;;;3.90;;
8927;SDS011;4499;48.304;11.902;2023-07-29T03:09:35;7.30;;;3.77;;
8927;SDS011;4499;48.304;11.902;2023-07-29T03:12:04;5.47;;;4.00;;
8927;SDS011;4499;48.304;11.902;2023-07-29T03:14:32;8.23;;;4.20;;
8927;SDS011;4499;48.304;11.902;2023-07-29T03:17:01;6.47;;;4.20;;
8927;SDS011;4499;48.304;11.902;2023-07-29T03:19:30;6.13;;;4.23;;
8927;SDS011;4499;48.304;11.902;2023-07-29T03:21:58;6.60;;;4.20;;
8927;SDS011;4499;48.304;11.902;2023-07-29T03:24:28;10.50;;;3.93;;
8927;SDS011;4499;48.304;11.902;2023-07-29T03:26:56;5.70;;;4.10;;
8927;SDS011;4499;48.304;11.902;2023-07-29T03:29:24;5.37;;;4.23;;
8927;SDS011;4499;48.304;11.902;2023-07-29T03:31:52;5.83;;;3.97;;
8927;SDS011;4499;48.304;11.902;2023-07-29T03:34:21;4.83;;;4.33;;
8927;SDS011;4499;48.304;11.902;2023-07-29T03:36:49;7.37;;;4.13;;
8927;SDS011;4499;48.304;11.902;2023-07-29T03:39:17;9.83;;;4.50;;
8927;SDS011;4499;48.304;11.902;2023-07-29T03:41:47;8.10;;;4.37;;
8927;SDS011;4499;48.304;11.902;2023-07-29T03:44:16;6.67;;;4.37;;
8927;SDS011;4499;48.304;11.902;2023-07-29T03:46:44;5.53;;;3.73;;
8927;SDS011;4499;48.304;11.902;2023-07-29T03:49:12;5.27;;;4.03;;
8927;SDS011;4499;48.304;11.902;2023-07-29T03:51:40;7.20;;;4.37;;
8927;SDS011;4499;48.304;11.902;2023-07-29T03:54:08;6.43;;;4.03;;
8927;SDS011;4499;48.304;11.902;2023-07-29T03:56:37;9.33;;;3.73;;
8927;SDS011;4499;48.304;11.902;2023-07-29T03:59:06;6.70;;;4.00;;
8927;SDS011;4499;48.304;11.902;2023-07-29T04:01:35;5.63;;;4.00;;
8927;SDS011;4499;48.304;11.902;2023-07-29T04:04:03;4.50;;;3.57;;
8927;SDS011;4499;48.304;11.902;2023-07-29T04:06:31;6.93;;;3.93;;
8927;SDS011;4499;48.304;11.902;2023-07-29T04:09:00;4.30;;;3.47;;
8927;SDS011;4499;48.304;11.902;2023-07-29T04:11:28;6.03;;;3.40;;
8927;SDS011;4499;48.304;11.902;2023-07-29T04:13:56;4.10;;;2.97;;
8927;SDS011;4499;48.304;11.902;2023-07-29T04:16:26;4.10;;;3.33;;
8927;SDS011;4499;48.304;11.902;2023-07-29T04:18:55;5.33;;;3.13;;
8927;SDS011;4499;48.304;11.902;2023-07-29T04:21:23;3.67;;;3.07;;
8927;SDS011;4499;48.304;11.902;2023-07-29T04:23:51;4.63;;;2.90;;
8927;SDS011;4499;48.304;11.902;2023-07-29T04:26:19;5.13;;;3.17;;
8927;SDS011;4499;48.304;11.902;2023-07-29T04:28:47;4.17;;;3.20;;
8927;SDS011;4499;48.304;11.902;2023-07-29T04:31:16;3.97;;;2.90;;
8927;SDS011;4499;48.304;11.902;2023-07-29T04:33:45;3.87;;;3.00;;
8927;SDS011;4499;48.304;11.902;2023-07-29T04:36:13;3.40;;;2.80;;
8927;SDS011;4499;48.304;11.902;2023-07-29T04:38:41;4.10;;;2.70;;
8927;SDS011;4499;48.304;11.902;2023-07-29T04:41:10;4.10;;;2.90;;
8927;SDS011;4499;48.304;11.902;2023-07-29T04:43:38;3.43;;;2.50;;
8927;SDS011;4499;48.304;11.902;2023-07-29T04:46:06;3.17;;;2.50;;
8927;SDS011;4499;48.304;11.902;2023-07-29T04:48:35;4.03;;;2.57;;
8927;SDS011;4499;48.304;11.902;2023-07-29T04:51:04;7.70;;;3.03;;
8927;SDS011;4499;48.304;11.902;2023-07-29T04:53:32;2.60;;;2.40;;
8927;SDS011;4499;48.304;11.902;2023-07-29T04:56:02;4.27;;;2.40;;
8927;SDS011;4499;48.304;11.902;2023-07-29T04:58:31;3.40;;;2.73;;
8927;SDS011;4499;48.304;11.902;2023-07-29T05:01:01;4.07;;;2.47;;
8927;SDS011;4499;48.304;11.902;2023-07-29T05:03:29;3.27;;;2.50;;
8927;SDS011;4499;48.304;11.902;2023-07-29T05:05:58;4.00;;;2.53;;
8927;SDS011;4499;48.304;11.902;2023-07-29T05:08:27;2.93;;;2.53;;
8927;SDS011;4499;48.304;11.902;2023-07-29T05:10:55;4.20;;;2.73;;
8927;SDS011;4499;48.304;11.902;2023-07-29T05:13:23;3.27;;;2.40;;
8927;SDS011;4499;48.304;11.902;2023-07-29T05:15:52;3.03;;;2.37;;
8927;SDS011;4499;48.304;11.902;2023-07-29T05:18:20;9.37;;;2.70;;
8927;SDS011;4499;48.304;11.902;2023-07-29T05:20:48;3.23;;;2.40;;
8927;SDS011;4499;48.304;11.902;2023-07-29T05:23:16;2.97;;;2.20;;
8927;SDS011;4499;48.304;11.902;2023-07-29T05:25:46;4.13;;;2.50;;
8927;SDS011;4499;48.304;11.902;2023-07-29T05:28:14;3.00;;;2.43;;
8927;SDS011;4499;48.304;11.902;2023-07-29T05:30:43;2.57;;;2.37;;
8927;SDS011;4499;48.304;11.902;2023-07-29T05:33:11;3.50;;;2.10;;
8927;SDS011;4499;48.304;11.902;2023-07-29T05:35:39;4.50;;;2.20;;
8927;SDS011;4499;48.304;11.902;2023-07-29T05:38:07;4.33;;;2.13;;
8927;SDS011;4499;48.304;11.902;2023-07-29T05:40:36;3.27;;;2.17;;
8927;SDS011;4499;48.304;11.902;2023-07-29T05:43:05;2.60;;;2.33;;
8927;SDS011;4499;48.304;11.902;2023-07-29T05:45:33;2.30;;;2.10;;
8927;SDS011;4499;48.304;11.902;2023-07-29T05:48:01;5.27;;;2.30;;
8927;SDS011;4499;48.304;11.902;2023-07-29T05:50:29;2.37;;;1.90;;
8927;SDS011;4499;48.304;11.902;2023-07-29T05:52:57;2.13;;;1.83;;
8927;SDS011;4499;48.304;11.902;2023-07-29T05:55:26;3.07;;;2.10;;
8927;SDS011;4499;48.304;11.902;2023-07-29T05:57:54;4.80;;;2.10;;
8927;SDS011;4499;48.304;11.902;2023-07-29T06:00:23;3.23;;;1.90;;
8927;SDS011;4499;48.304;11.902;2023-07-29T06:02:52;4.87;;;2.10;;
8927;SDS011;4499;48.304;11.902;2023-07-29T06:05:20;2.33;;;2.00;;
8927;SDS011;4499;48.304;11.902;2023-07-29T06:07:48;4.53;;;2.20;;
8927;SDS011;4499;48.304;11.902;2023-07-29T06:10:16;2.20;;;2.00;;
8927;SDS011;4499;48.304;11.902;2023-07-29T06:12:45;2.63;;;1.90;;
8927;SDS011;4499;48.304;11.902;2023-07-29T06:15:13;2.20;;;2.00;;
8927;SDS011;4499;48.304;11.902;2023-07-29T06:17:43;2.07;;;1.80;;
8927;SDS011;4499;48.304;11.902;2023-07-29T06:20:11;2.07;;;1.87;;
8927;SDS011;4499;48.304;11.902;2023-07-29T06:22:39;2.10;;;1.90;;
8927;SDS011;4499;48.304;11.902;2023-07-29T06:25:08;3.27;;;1.97;;
8927;SDS011;4499;48.304;11.902;2023-07-29T06:27:36;3.93;;;2.10;;
8927;SDS011;4499;48.304;11.902;2023-07-29T06:30:05;2.10;;;1.90;;
8927;SDS011;4499;48.304;11.902;2023-07-29T06:32:34;2.83;;;1.90;;
8927;SDS011;4499;48.304;11.902;2023-07-29T06:35:04;3.80;;;2.10;;
8927;SDS011;4499;48.304;11.902;2023-07-29T06:37:32;3.20;;;2.00;;
8927;SDS011;4499;48.304;11.902;2023-07-29T06:40:00;2.20;;;2.00;;
8927;SDS011;4499;48.304;11.902;2023-07-29T06:42:29;2.90;;;2.07;;
8927;SDS011;4499;48.304;11.902;2023-07-29T06:44:57;2.67;;;2.30;;
8927;SDS011;4499;48.304;11.902;2023-07-29T06:47:25;3.40;;;1.73;;
8927;SDS011;4499;48.304;11.902;2023-07-29T06:49:53;2.10;;;1.80;;
8927;SDS011;4499;48.304;11.902;2023-07-29T06:52:23;3.97;;;2.00;;
8927;SDS011;4499;48.304;11.902;2023-07-29T06:54:51;2.17;;;1.90;;
8927;SDS011;4499;48.304;11.902;2023-07-29T06:57:19;2.17;;;1.70;;
8927;SDS011;4499;48.304;11.902;2023-07-29T06:59:48;2.20;;;2.00;;
8927;SDS011;4499;48.304;11.902;2023-07-29T07:02:16;3.23;;;1.80;;
8927;SDS011;4499;48.304;11.902;2023-07-29T07:04:44;2.83;;;1.93;;
8927;SDS011;4499;48.304;11.902;2023-07-29T07:07:12;2.70;;;1.80;;
8927;SDS011;4499;48.304;11.902;2023-07-29T07:09:41;1.93;;;1.70;;
8927;SDS011;4499;48.304;11.902;2023-07-29T07:12:09;1.70;;;1.60;;
8927;SDS011;4499;48.304;11.902;2023-07-29T07:14:38;1.60;;;1.50;;
8927;SDS011;4499;48.304;11.902;2023-07-29T07:17:06;2.70;;;1.80;;
8927;SDS011;4499;48.304;11.902;2023-07-29T07:19:38;3.90;;;1.80;;
8927;SDS011;4499;48.304;11.902;2023-07-29T07:22:06;3.27;;;1.93;;
8927;SDS011;4499;48.304;11.902;2023-07-29T07:24:34;4.90;;;2.10;;
8927;SDS011;4499;48.304;11.902;2023-07-29T07:27:04;9.80;;;2.60;;
8927;SDS011;4499;48.304;11.902;2023-07-29T07:29:33;4.77;;;2.40;;
8927;SDS011;4499;48.304;11.902;2023-07-29T07:32:01;9.37;;;2.50;;
8927;SDS011;4499;48.304;11.902;2023-07-29T07:34:30;6.10;;;2.53;;
8927;SDS011;4499;48.304;11.902;2023-07-29T07:36:59;7.23;;;2.90;;
8927;SDS011;4499;48.304;11.902;2023-07-29T07:39:28;6.60;;;3.20;;
8927;SDS011;4499;48.304;11.902;2023-07-29T07:41:56;5.10;;;2.70;;
8927;SDS011;4499;48.304;11.902;2023-07-29T07:44:25;4.03;;;2.80;;
8927;SDS011;4499;48.304;11.902;2023-07-29T07:46:53;6.47;;;3.10;;
8927;SDS011;4499;48.304;11.902;2023-07-29T07:49:22;3.87;;;2.53;;
8927;SDS011;4499;48.304;11.902;2023-07-29T07:51:50;4.40;;;2.73;;
8927;SDS011;4499;48.304;11.902;2023-07-29T07:54:18;5.47;;;2.97;;
8927;SDS011;4499;48.304;11.902;2023-07-29T07:56:46;4.07;;;2.97;;
8927;SDS011;4499;48.304;11.902;2023-07-29T07:59:14;3.50;;;2.90;;
8927;SDS011;4499;48.304;11.902;2023-07-29T08:01:44;3.67;;;2.70;;
8927;SDS011;4499;48.304;11.902;2023-07-29T08:04:13;5.27;;;2.80;;
8927;SDS011;4499;48.304;11.902;2023-07-29T08:06:41;3.77;;;2.80;;
8927;SDS011;4499;48.304;11.902;2023-07-29T08:09:09;3.63;;;3.00;;
8927;SDS011;4499;48.304;11.902;2023-07-29T08:11:37;5.17;;;3.23;;
8927;SDS011;4499;48.304;11.902;2023-07-29T08:14:05;5.27;;;3.00;;
8927;SDS011;4499;48.304;11.902;2023-07-29T08:16:34;6.10;;;2.80;;
8927;SDS011;4499;48.304;11.902;2023-07-29T08:19:04;4.53;;;3.00;;
8927;SDS011;4499;48.304;11.902;2023-07-29T08:21:33;7.53;;;3.10;;
8927;SDS011;4499;48.304;11.902;2023-07-29T08:24:02;3.37;;;2.53;;
8927;SDS011;4499;48.304;11.902;2023-07-29T08:26:30;4.57;;;2.47;;
8927;SDS011;4499;48.304;11.902;2023-07-29T08:28:58;3.73;;;2.80;;
8927;SDS011;4499;48.304;11.902;2023-07-29T08:31:27;5.97;;;2.53;;
8927;SDS011;4499;48.304;11.902;2023-07-29T08:33:55;5.03;;;2.60;;
8927;SDS011;4499;48.304;11.902;2023-07-29T08:36:25;4.50;;;3.00;;
8927;SDS011;4499;48.304;11.902;2023-07-29T08:38:53;3.27;;;2.50;;
8927;SDS011;4499;48.304;11.902;2023-07-29T08:41:21;3.83;;;2.50;;
8927;SDS011;4499;48.304;11.902;2023-07-29T08:43:56;2.43;;;2.23;;
8927;SDS011;4499;48.304;11.902;2023-07-29T08:46:29;4.37;;;2.53;;
8927;SDS011;4499;48.304;11.902;2023-07-29T08:48:58;2.93;;;2.50;;
8927;SDS011;4499;48.304;11.902;2023-07-29T08:51:29;4.83;;;2.80;;
8927;SDS011;4499;48.304;11.902;2023-07-29T08:53:59;2.80;;;2.40;;
8927;SDS011;4499;48.304;11.902;2023-07-29T08:56:28;2.67;;;2.00;;
8927;SDS011;4499;48.304;11.902;2023-07-29T08:58:57;4.27;;;2.57;;
8927;SDS011;4499;48.304;11.902;2023-07-29T09:01:28;2.70;;;2.47;;
8927;SDS011;4499;48.304;11.902;2023-07-29T09:03:57;3.03;;;2.37;;
8927;SDS011;4499;48.304;11.902;2023-07-29T09:06:25;3.30;;;2.50;;
8927;SDS011;4499;48.304;11.902;2023-07-29T09:08:55;2.67;;;2.30;;
8927;SDS011;4499;48.304;11.902;2023-07-29T09:11:23;3.90;;;2.40;;
8927;SDS011;4499;48.304;11.902;2023-07-29T09:13:52;4.67;;;2.50;;
8927;SDS011;4499;48.304;11.902;2023-07-29T09:16:20;5.93;;;2.70;;
8927;SDS011;4499;48.304;11.902;2023-07-29T09:18:49;4.17;;;2.60;;
8927;SDS011;4499;48.304;11.902;2023-07-29T09:21:18;2.87;;;2.27;;
8927;SDS011;4499;48.304;11.902;2023-07-29T09:23:50;3.57;;;2.70;;
8927;SDS011;4499;48.304;11.902;2023-07-29T09:26:23;3.13;;;2.50;;
8927;SDS011;4499;48.304;11.902;2023-07-29T09:28:52;3.03;;;2.27;;
8927;SDS011;4499;48.304;11.902;2023-07-29T09:31:22;2.97;;;2.50;;
8927;SDS011;4499;48.304;11.902;2023-07-29T09:33:53;3.00;;;2.57;;
8927;SDS011;4499;48.304;11.902;2023-07-29T09:36:24;3.90;;;2.50;;
8927;SDS011;4499;48.304;11.902;2023-07-29T09:38:53;3.63;;;2.37;;
8927;SDS011;4499;48.304;11.902;2023-07-29T09:41:23;2.58;;;2.38;;
8927;SDS011;4499;48.304;11.902;2023-07-29T09:43:56;3.05;;;2.38;;
8927;SDS011;4499;48.304;11.902;2023-07-29T09:46:25;2.97;;;2.35;;
8927;SDS011;4499;48.304;11.902;2023-07-29T09:49:03;2.72;;;2.45;;
8927;SDS011;4499;48.304;11.902;2023-07-29T09:51:32;2.53;;;2.33;;
8927;SDS011;4499;48.304;11.902;2023-07-29T09:54:05;2.65;;;2.30;;
8927;SDS011;4499;48.304;11.902;2023-07-29T09:56:35;2.40;;;2.20;;
8927;SDS011;4499;48.304;11.902;2023-07-29T09:59:08;4.47;;;2.38;;
8927;SDS011;4499;48.304;11.902;2023-07-29T10:01:38;2.88;;;2.40;;
8927;SDS011;4499;48.304;11.902;2023-07-29T10:04:07;3.22;;;2.30;;
8927;SDS011;4499;48.304;11.902;2023-07-29T10:06:39;2.70;;;2.30;;
8927;SDS011;4499;48.304;11.902;2023-07-29T10:09:08;2.95;;;2.30;;
8927;SDS011;4499;48.304;11.902;2023-07-29T10:11:40;2.97;;;2.67;;
8927;SDS011;4499;48.304;11.902;2023-07-29T10:14:10;3.25;;;2.45;;
8927;SDS011;4499;48.304;11.902;2023-07-29T10:16:39;2.90;;;2.55;;
8927;SDS011;4499;48.304;11.902;2023-07-29T10:19:08;2.97;;;2.67;;
8927;SDS011;4499;48.304;11.902;2023-07-29T10:21:39;2.83;;;2.47;;
8927;SDS011;4499;48.304;11.902;2023-07-29T10:24:11;3.88;;;2.38;;
8927;SDS011;4499;48.304;11.902;2023-07-29T10:26:44;3.35;;;2.55;;
8927;SDS011;4499;48.304;11.902;2023-07-29T10:29:14;3.22;;;2.75;;
8927;SDS011;4499;48.304;11.902;2023-07-29T10:31:43;4.60;;;2.42;;
8927;SDS011;4499;48.304;11.902;2023-07-29T10:34:12;3.10;;;2.80;;
8927;SDS011;4499;48.304;11.902;2023-07-29T10:36:41;2.85;;;2.50;;
8927;SDS011;4499;48.304;11.902;2023-07-29T10:39:10;5.40;;;2.50;;
8927;SDS011;4499;48.304;11.902;2023-07-29T10:41:55;2.80;;;2.58;;
8927;SDS011;4499;48.304;11.902;2023-07-29T10:47:17;3.15;;;2.50;;
8927;SDS011;4499;48.304;11.902;2023-07-29T10:49:48;3.60;;;2.63;;
8927;SDS011;4499;48.304;11.902;2023-07-29T10:52:27;3.70;;;2.28;;
8927;SDS011;4499;48.304;11.902;2023-07-29T10:54:57;2.67;;;2.30;;
8927;SDS011;4499;48.304;11.902;2023-07-29T10:57:31;2.75;;;2.45;;
8927;SDS011;4499;48.304;11.902;2023-07-29T11:00:01;4.70;;;3.13;;
8927;SDS011;4499;48.304;11.902;2023-07-29T11:02:31;2.40;;;2.20;;
8927;SDS011;4499;48.304;11.902;2023-07-29T11:05:04;4.68;;;2.63;;
8927;SDS011;4499;48.304;11.902;2023-07-29T11:07:42;3.03;;;2.58;;
8927;SDS011;4499;48.304;11.902;2023-07-29T11:10:11;4.28;;;2.40;;
8927;SDS011;4499;48.304;11.902;2023-07-29T11:12:42;3.50;;;1.70;;
8927;SDS011;4499;48.304;11.902;2023-07-29T11:15:21;4.88;;;1.90;;
8927;SDS011;4499;48.304;11.902;2023-07-29T11:17:51;3.13;;;1.57;;
8927;SDS011;4499;48.304;11.902;2023-07-29T11:20:20;6.63;;;1.70;;
8927;SDS011;4499;48.304;11.902;2023-07-29T11:22:49;2.67;;;1.80;;
8927;SDS011;4499;48.304;11.902;2023-07-29T11:25:18;5.90;;;2.10;;
8927;SDS011;4499;48.304;11.902;2023-07-29T11:27:48;6.53;;;2.40;;
8927;SDS011;4499;48.304;11.902;2023-07-29T11:30:18;8.97;;;3.03;;
8927;SDS011;4499;48.304;11.902;2023-07-29T11:32:46;7.90;;;3.03;;
8927;SDS011;4499;48.304;11.902;2023-07-29T11:35:15;8.43;;;3.13;;
8927;SDS011;4499;48.304;11.902;2023-07-29T11:37:44;7.30;;;2.93;;
8927;SDS011;4499;48.304;11.902;2023-07-29T11:40:14;8.57;;;2.43;;
8927;SDS011;4499;48.304;11.902;2023-07-29T11:42:43;8.30;;;2.87;;
8927;SDS011;4499;48.304;11.902;2023-07-29T11:45:14;5.20;;;2.70;;
8927;SDS011;4499;48.304;11.902;2023-07-29T11:47:43;5.30;;;2.50;;
8927;SDS011;4499;48.304;11.902;2023-07-29T11:50:12;4.00;;;2.30;;
8927;SDS011;4499;48.304;11.902;2023-07-29T11:52:42;3.40;;;2.53;;
8927;SDS011;4499;48.304;11.902;2023-07-29T11:55:11;4.03;;;2.20;;
8927;SDS011;4499;48.304;11.902;2023-07-29T11:57:41;4.90;;;2.70;;
8927;SDS011;4499;48.304;11.902;2023-07-29T12:00:10;15.20;;;3.37;;
8927;SDS011;4499;48.304;11.902;2023-07-29T12:02:42;3.87;;;2.40;;
8927;SDS011;4499;48.304;11.902;2023-07-29T12:05:12;4.33;;;2.43;;
8927;SDS011;4499;48.304;11.902;2023-07-29T12:07:42;3.57;;;2.63;;
8927;SDS011;4499;48.304;11.902;2023-07-29T12:10:11;3.90;;;2.50;;
8927;SDS011;4499;48.304;11.902;2023-07-29T12:12:49;3.00;;;2.40;;
8927;SDS011;4499;48.304;11.902;2023-07-29T12:15:24;4.50;;;2.50;;
8927;SDS011;4499;48.304;11.902;2023-07-29T12:17:55;3.97;;;2.50;;
8927;SDS011;4499;48.304;11.902;2023-07-29T12:20:25;3.63;;;2.40;;
8927;SDS011;4499;48.304;11.902;2023-07-29T12:22:55;4.33;;;2.70;;
8927;SDS011;4499;48.304;11.902;2023-07-29T12:25:25;3.10;;;2.50;;
8927;SDS011;4499;48.304;11.902;2023-07-29T12:27:53;4.13;;;2.60;;
8927;SDS011;4499;48.304;11.902;2023-07-29T12:30:22;4.20;;;2.30;;
8927;SDS011;4499;48.304;11.902;2023-07-29T12:32:51;3.90;;;2.80;;
8927;SDS011;4499;48.304;11.902;2023-07-29T12:35:21;7.53;;;2.90;;
8927;SDS011;4499;48.304;11.902;2023-07-29T12:37:57;4.47;;;2.70;;
8927;SDS011;4499;48.304;11.902;2023-07-29T12:40:26;4.10;;;2.40;;
8927;SDS011;4499;48.304;11.902;2023-07-29T12:42:55;4.00;;;2.40;;
8927;SDS011;4499;48.304;11.902;2023-07-29T12:45:24;4.77;;;2.60;;
8927;SDS011;4499;48.304;11.902;2023-07-29T12:47:54;3.40;;;2.47;;
8927;SDS011;4499;48.304;11.902;2023-07-29T12:50:24;3.27;;;2.30;;
8927;SDS011;4499;48.304;11.902;2023-07-29T12:52:53;4.30;;;2.63;;
8927;SDS011;4499;48.304;11.902;2023-07-29T12:55:22;6.07;;;2.67;;
8927;SDS011;4499;48.304;11.902;2023-07-29T12:57:50;4.63;;;2.80;;
8927;SDS011;4499;48.304;11.902;2023-07-29T13:00:18;3.33;;;2.70;;
8927;SDS011;4499;48.304;11.902;2023-07-29T13:02:47;5.03;;;2.73;;
8927;SDS011;4499;48.304;11.902;2023-07-29T13:05:15;4.73;;;2.80;;
8927;SDS011;4499;48.304;11.902;2023-07-29T13:07:45;3.47;;;2.60;;
8927;SDS011;4499;48.304;11.902;2023-07-29T13:10:13;5.23;;;2.60;;
8927;SDS011;4499;48.304;11.902;2023-07-29T13:12:41;3.47;;;2.60;;
8927;SDS011;4499;48.304;11.902;2023-07-29T13:15:10;4.57;;;3.00;;
8927;SDS011;4499;48.304;11.902;2023-07-29T13:17:38;3.53;;;2.83;;
8927;SDS011;4499;48.304;11.902;2023-07-29T13:20:08;6.23;;;2.80;;
8927;SDS011;4499;48.304;11.902;2023-07-29T13:22:36;4.00;;;2.97;;
8927;SDS011;4499;48.304;11.902;2023-07-29T13:25:06;4.27;;;3.03;;
8927;SDS011;4499;48.304;11.902;2023-07-29T13:27:34;3.73;;;2.63;;
8927;SDS011;4499;48.304;11.902;2023-07-29T13:30:03;3.40;;;2.70;;
8927;SDS011;4499;48.304;11.902;2023-07-29T13:32:32;3.90;;;2.73;;
8927;SDS011;4499;48.304;11.902;2023-07-29T13:35:00;4.83;;;2.83;;
8927;SDS011;4499;48.304;11.902;2023-07-29T13:37:28;5.67;;;2.80;;
8927;SDS011;4499;48.304;11.902;2023-07-29T13:39:56;2.73;;;2.50;;
8927;SDS011;4499;48.304;11.902;2023-07-29T13:42:25;3.60;;;2.70;;
8927;SDS011;4499;48.304;11.902;2023-07-29T13:44:53;2.60;;;2.40;;
8927;SDS011;4499;48.304;11.902;2023-07-29T13:47:22;3.80;;;2.90;;
8927;SDS011;4499;48.304;11.902;2023-07-29T13:49:50;3.23;;;2.77;;
8927;SDS011;4499;48.304;11.902;2023-07-29T13:52:18;3.50;;;2.70;;
8927;SDS011;4499;48.304;11.902;2023-07-29T13:54:46;3.77;;;2.60;;
8927;SDS011;4499;48.304;11.902;2023-07-29T13:57:15;3.80;;;2.70;;
8927;SDS011;4499;48.304;11.902;2023-07-29T13:59:44;5.57;;;2.77;;
8927;SDS011;4499;48.304;11.902;2023-07-29T14:02:13;4.77;;;2.90;;
8927;SDS011;4499;48.304;11.902;2023-07-29T14:04:42;6.10;;;2.77;;
8927;SDS011;4499;48.304;11.902;2023-07-29T14:07:10;3.87;;;2.50;;
8927;SDS011;4499;48.304;11.902;2023-07-29T14:09:38;4.70;;;2.67;;
8927;SDS011;4499;48.304;11.902;2023-07-29T14:12:09;2.63;;;2.43;;
8927;SDS011;4499;48.304;11.902;2023-07-29T14:14:38;3.23;;;2.40;;
8927;SDS011;4499;48.304;11.902;2023-07-29T14:17:08;3.20;;;2.40;;
8927;SDS011;4499;48.304;11.902;2023-07-29T14:19:36;3.20;;;2.30;;
8927;SDS011;4499;48.304;11.902;2023-07-29T14:22:04;3.53;;;2.73;;
8927;SDS011;4499;48.304;11.902;2023-07-29T14:24:33;4.40;;;3.07;;
8927;SDS011;4499;48.304;11.902;2023-07-29T14:27:01;3.90;;;2.83;;
8927;SDS011;4499;48.304;11.902;2023-07-29T14:29:30;3.27;;;2.73;;
8927;SDS011;4499;48.304;11.902;2023-07-29T14:31:58;4.37;;;2.70;;
8927;SDS011;4499;48.304;11.902;2023-07-29T14:34:27;4.17;;;2.77;;
8927;SDS011;4499;48.304;11.902;2023-07-29T14:36:56;3.83;;;2.70;;
8927;SDS011;4499;48.304;11.902;2023-07-29T14:39:24;6.03;;;2.80;;
8927;SDS011;4499;48.304;11.902;2023-07-29T14:41:52;5.07;;;2.60;;
8927;SDS011;4499;48.304;11.902;2023-07-29T14:44:20;4.87;;;3.00;;
8927;SDS011;4499;48.304;11.902;2023-07-29T14:46:48;4.17;;;2.70;;
8927;SDS011;4499;48.304;11.902;2023-07-29T14:49:16;3.03;;;2.67;;
8927;SDS011;4499;48.304;11.902;2023-07-29T14:51:46;3.27;;;2.97;;
8927;SDS011;4499;48.304;11.902;2023-07-29T14:54:14;5.90;;;3.13;;
8927;SDS011;4499;48.304;11.902;2023-07-29T14:56:42;4.83;;;3.00;;
8927;SDS011;4499;48.304;11.902;2023-07-29T14:59:10;3.27;;;2.73;;
8927;SDS011;4499;48.304;11.902;2023-07-29T15:01:38;3.63;;;2.83;;
8927;SDS011;4499;48.304;11.902;2023-07-29T15:04:07;4.13;;;2.67;;
8927;SDS011;4499;48.304;11.902;2023-07-29T15:06:35;3.90;;;2.87;;
8927;SDS011;4499;48.304;11.902;2023-07-29T15:09:06;6.53;;;3.60;;
8927;SDS011;4499;48.304;11.902;2023-07-29T15:11:35;5.00;;;3.37;;
8927;SDS011;4499;48.304;11.902;2023-07-29T15:14:04;6.67;;;3.37;;